Terminal Aerodrome Forecast
Issued by NWS Northern Indiana

Home | Current Version | Previous Version | Text Only | Print | Product List | Glossary Off
Versions: 1 2 3 4 5 6 7 8 9 10 11 12 13 14 15

436
FTUS43 KIWX 071724
TAFFWA
TAF
KFWA 071724Z 0718/0818 22016G24KT P6SM BKN150
     FM080000 25005KT P6SM OVC040
     FM081400 27006KT 5SM BR OVC030=

USA.gov is the U.S. government's official web portal to all federal, state and local government web resources and services.